Time;durP1;ratioP1;P1;durP2;ratioP2;P2;SDS_P1;SDS_P2;PMS_P1;PMS_P2;Temp;Humidity;BMP_temperature;BMP_pressure;BME280_temperature;BME280_humidity;BME280_pressure;Samples;Min_cycle;Max_cycle;Signal;HPM_P1;HPM_P2
2022/06/27 00:01:56;;;;;;;1.70;1.13;;;23.20;99.90;;;;;;7372923;19;20384;-43
2022/06/27 00:04:26;;;;;;;1.87;1.10;;;23.20;99.90;;;;;;7364450;19;20388;-44
2022/06/27 00:06:55;;;;;;;1.37;1.00;;;23.20;99.00;;;;;;7371739;19;20389;-44
2022/06/27 00:09:27;;;;;;;1.57;0.70;;;23.20;97.90;;;;;;7370127;19;21105;-44
2022/06/27 00:12:00;;;;;;;2.13;0.97;;;23.40;97.60;;;;;;7372236;19;20376;-44
2022/06/27 00:14:30;;;;;;;1.83;1.10;;;23.40;97.30;;;;;;7373349;19;20376;-44
2022/06/27 00:16:59;;;;;;;0.40;0.30;;;23.40;96.20;;;;;;7370560;19;20401;-44
2022/06/27 00:19:31;;;;;;;1.67;0.60;;;23.40;94.80;;;;;;7373865;19;20781;-44
2022/06/27 00:22:01;;;;;;;0.83;0.60;;;23.30;93.50;;;;;;7373631;19;20383;-40
2022/06/27 00:24:30;;;;;;;1.67;0.70;;;23.10;94.80;;;;;;7369268;19;20870;-41
2022/06/27 00:27:02;;;;;;;0.77;0.60;;;23.10;94.70;;;;;;7370686;19;21553;-40
2022/06/27 00:29:32;;;;;;;2.87;0.70;;;22.90;95.30;;;;;;7366394;19;20408;-40
2022/06/27 00:32:01;;;;;;;0.63;0.50;;;22.90;96.10;;;;;;7370064;19;20372;-40
2022/06/27 00:34:32;;;;;;;3.40;0.70;;;23.10;95.80;;;;;;7366970;19;20745;-40
2022/06/27 00:37:04;;;;;;;0.70;0.50;;;23.00;96.80;;;;;;7364268;19;20930;-40
2022/06/27 00:39:34;;;;;;;2.30;0.80;;;22.90;97.80;;;;;;7370715;19;21087;-40
2022/06/27 00:42:06;;;;;;;1.50;0.80;;;22.80;99.60;;;;;;7365166;19;20425;-42
2022/06/27 00:44:38;;;;;;;2.43;1.10;;;22.80;99.90;;;;;;7374519;19;20412;-40
2022/06/27 00:47:10;;;;;;;2.20;1.00;;;22.60;99.90;;;;;;7370243;19;21083;-40
2022/06/27 00:49:42;;;;;;;1.97;0.90;;;22.20;99.90;;;;;;7376174;19;21028;-42
2022/06/27 00:52:14;;;;;;;2.93;1.00;;;21.90;99.90;;;;;;7375965;19;20466;-43
2022/06/27 00:54:45;;;;;;;3.03;0.90;;;21.80;99.90;;;;;;7368992;19;20398;-44
2022/06/27 00:57:19;;;;;;;2.50;0.93;;;22.00;99.90;;;;;;7380870;19;20392;-43
2022/06/27 00:59:49;;;;;;;2.70;0.90;;;22.00;99.90;;;;;;7370085;19;20371;-44
2022/06/27 01:02:18;;;;;;;3.40;1.10;;;22.20;99.90;;;;;;7370865;19;20384;-44
2022/06/27 01:04:48;;;;;;;2.23;1.00;;;22.20;99.90;;;;;;7363693;19;20372;-44
2022/06/27 01:07:18;;;;;;;2.13;0.67;;;22.40;99.90;;;;;;7375917;19;20408;-44
2022/06/27 01:09:47;;;;;;;1.60;0.87;;;22.40;99.90;;;;;;7373731;19;20404;-44
2022/06/27 01:12:23;;;;;;;6.83;1.40;;;22.40;99.90;;;;;;7372947;19;20411;-42
2022/06/27 01:14:52;;;;;;;1.27;0.90;;;22.20;99.90;;;;;;7372557;19;20388;-44
2022/06/27 01:17:22;;;;;;;2.20;0.70;;;22.00;99.90;;;;;;7373261;19;20448;-43
2022/06/27 01:19:52;;;;;;;2.63;1.33;;;21.80;99.90;;;;;;7368223;19;20441;-43
2022/06/27 01:22:24;;;;;;;2.13;0.70;;;21.80;99.90;;;;;;7371867;19;20408;-43
2022/06/27 01:24:53;;;;;;;2.43;0.60;;;21.80;99.90;;;;;;7368317;19;20413;-44
2022/06/27 01:27:23;;;;;;;2.20;0.80;;;21.80;99.90;;;;;;7363057;19;20409;-43
2022/06/27 01:29:53;;;;;;;3.47;1.63;;;21.60;99.90;;;;;;7371397;19;20417;-43
2022/06/27 01:32:24;;;;;;;1.53;0.70;;;21.70;99.90;;;;;;7362944;19;20372;-44
2022/06/27 01:34:53;;;;;;;2.20;0.93;;;21.70;99.90;;;;;;7373859;19;20399;-43
2022/06/27 01:37:25;;;;;;;1.10;0.57;;;21.70;99.90;;;;;;7374085;19;20384;-43
2022/06/27 01:40:00;;;;;;;3.53;1.00;;;21.70;99.90;;;;;;7372542;19;20822;-42
2022/06/27 01:42:31;;;;;;;1.37;0.53;;;21.60;99.90;;;;;;7369345;19;20925;-43
2022/06/27 01:45:01;;;;;;;1.77;0.80;;;21.50;99.90;;;;;;7368846;19;20407;-43
2022/06/27 01:47:32;;;;;;;2.33;1.00;;;21.40;99.90;;;;;;7373595;19;20784;-43
2022/06/27 01:50:07;;;;;;;2.40;1.20;;;21.30;99.90;;;;;;7376818;19;20384;-43
2022/06/27 01:52:48;;;;;;;1.90;0.93;;;21.00;99.90;;;;;;7366949;19;20436;-42
2022/06/27 01:55:20;;;;;;;3.63;1.10;;;20.80;99.90;;;;;;7362344;19;20364;-43
2022/06/27 01:57:53;;;;;;;1.67;1.10;;;20.70;99.90;;;;;;7365339;19;20380;-43
2022/06/27 02:00:22;;;;;;;1.80;0.73;;;20.50;99.90;;;;;;7367856;19;20488;-43
2022/06/27 02:03:01;;;;;;;3.83;1.00;;;20.40;99.90;;;;;;7362619;19;20380;-43
2022/06/27 02:05:46;;;;;;;2.20;1.20;;;20.20;99.90;;;;;;7355248;19;20686;-44
2022/06/27 02:08:22;;;;;;;1.30;1.17;;;20.30;99.90;;;;;;7364007;19;20420;-43
2022/06/27 02:10:52;;;;;;;5.80;0.80;;;20.40;99.90;;;;;;7364994;19;20794;-44
2022/06/27 02:13:22;;;;;;;1.07;0.70;;;20.50;99.90;;;;;;7366038;19;20407;-44
2022/06/27 02:16:06;;;;;;;2.87;0.70;;;20.80;99.90;;;;;;7361141;19;20471;-42
2022/06/27 02:18:38;;;;;;;1.07;0.83;;;21.00;99.90;;;;;;7369910;19;20955;-43
2022/06/27 02:21:14;;;;;;;1.33;1.00;;;21.10;99.90;;;;;;7359316;19;20388;-44
2022/06/27 02:23:46;;;;;;;3.30;0.80;;;21.20;99.90;;;;;;7362014;19;20496;-43
2022/06/27 02:26:17;;;;;;;2.70;0.80;;;21.40;99.90;;;;;;7366625;19;20373;-43
2022/06/27 02:28:47;;;;;;;1.43;0.77;;;21.30;99.90;;;;;;7363911;19;20491;-43
2022/06/27 02:31:16;;;;;;;1.17;0.83;;;21.20;99.90;;;;;;7366999;19;20431;-43
2022/06/27 02:33:48;;;;;;;3.80;0.93;;;21.30;99.90;;;;;;7369602;19;20420;-43
2022/06/27 02:36:20;;;;;;;1.30;0.60;;;21.40;99.90;;;;;;7373221;19;21048;-44
2022/06/27 02:38:56;;;;;;;1.43;0.80;;;21.30;99.90;;;;;;7367797;19;21042;-44
2022/06/27 02:41:31;;;;;;;0.80;0.63;;;21.30;99.90;;;;;;7370185;19;20724;-43
2022/06/27 02:44:05;;;;;;;1.10;0.60;;;21.10;99.90;;;;;;7369284;19;20390;-44
2022/06/27 02:46:35;;;;;;;1.90;1.07;;;21.30;99.90;;;;;;7364349;19;20428;-44
2022/06/27 02:49:06;;;;;;;2.33;1.07;;;21.40;99.90;;;;;;7367712;19;21640;-44
2022/06/27 02:51:42;;;;;;;1.10;0.70;;;21.30;99.90;;;;;;7374308;19;20376;-44
2022/06/27 02:54:21;;;;;;;1.27;0.90;;;21.20;99.90;;;;;;7371465;19;20413;-44
2022/06/27 02:57:03;;;;;;;2.30;1.00;;;21.00;99.90;;;;;;7368775;19;20408;-44
2022/06/27 02:59:38;;;;;;;2.00;0.77;;;21.00;99.90;;;;;;7365509;19;20388;-44
2022/06/27 03:02:11;;;;;;;1.53;0.83;;;21.10;99.90;;;;;;7365747;19;20379;-44
2022/06/27 03:05:03;;;;;;;2.40;0.73;;;21.20;99.90;;;;;;7364769;19;20383;-44
2022/06/27 03:07:39;;;;;;;0.70;0.60;;;21.10;99.90;;;;;;7368341;19;20958;-44
2022/06/27 03:10:13;;;;;;;3.43;0.90;;;21.10;99.90;;;;;;7369274;19;20420;-44
2022/06/27 03:12:44;;;;;;;2.10;0.87;;;21.10;99.90;;;;;;7370492;19;20414;-44
2022/06/27 03:15:15;;;;;;;1.57;0.77;;;21.10;99.90;;;;;;7357858;19;20364;-44
2022/06/27 03:17:48;;;;;;;1.20;1.00;;;21.00;99.90;;;;;;7367541;19;21428;-43
2022/06/27 03:20:30;;;;;;;1.67;0.50;;;21.00;99.90;;;;;;7367335;19;20384;-40
2022/06/27 03:23:16;;;;;;;1.73;0.70;;;21.10;99.90;;;;;;7369947;19;20925;-40
2022/06/27 03:25:53;;;;;;;2.80;1.10;;;21.30;99.90;;;;;;7364274;19;20455;-40
2022/06/27 03:28:25;;;;;;;2.90;1.07;;;21.60;99.90;;;;;;7366647;19;20421;-41
2022/06/27 03:30:54;;;;;;;1.30;0.90;;;21.60;99.90;;;;;;7366489;19;20962;-40
2022/06/27 03:33:26;;;;;;;1.30;0.83;;;21.40;99.90;;;;;;7362339;19;20961;-40
2022/06/27 03:36:04;;;;;;;5.40;0.93;;;21.60;99.90;;;;;;7369925;19;20368;-41
2022/06/27 03:38:34;;;;;;;2.87;1.00;;;21.40;99.90;;;;;;7370989;19;21147;-40
2022/06/27 03:41:06;;;;;;;2.23;1.30;;;21.40;99.90;;;;;;7368792;19;20379;-40
2022/06/27 03:43:36;;;;;;;2.50;1.43;;;21.40;99.90;;;;;;7371436;19;20384;-40
2022/06/27 03:46:06;;;;;;;4.10;1.30;;;21.30;99.90;;;;;;7363451;19;20417;-40
2022/06/27 03:51:50;;;;;;;3.67;1.20;;;21.40;99.90;;;;;;7364812;19;20498;-40
2022/06/27 03:54:20;;;;;;;1.73;1.37;;;21.50;99.90;;;;;;7367598;19;20380;-40
2022/06/27 03:56:53;;;;;;;2.50;1.40;;;21.50;99.90;;;;;;7366020;19;20412;-40
2022/06/27 03:59:23;;;;;;;3.20;1.40;;;21.70;99.90;;;;;;7366318;19;20408;-40
2022/06/27 04:01:54;;;;;;;2.00;1.50;;;21.70;99.90;;;;;;7351156;19;20417;-40
2022/06/27 04:04:25;;;;;;;2.30;1.50;;;21.70;99.90;;;;;;7356755;19;20703;-41
2022/06/27 04:06:54;;;;;;;2.50;1.30;;;21.70;99.90;;;;;;7370290;19;20423;-40
2022/06/27 04:09:24;;;;;;;4.60;1.23;;;21.70;99.90;;;;;;7363971;19;20925;-40
2022/06/27 04:11:56;;;;;;;2.10;1.23;;;21.70;99.90;;;;;;7359250;19;20479;-40
2022/06/27 04:14:48;;;;;;;1.20;1.10;;;21.70;99.90;;;;;;7354529;19;20798;-40
2022/06/27 04:17:53;;;;;;;3.37;1.40;;;21.60;99.90;;;;;;7361767;19;20489;-40
2022/06/27 04:20:49;;;;;;;2.50;1.13;;;21.10;99.90;;;;;;7367539;19;20506;-40
2022/06/27 04:23:20;;;;;;;2.10;1.20;;;21.20;99.90;;;;;;7363320;19;20538;-40
2022/06/27 04:26:10;;;;;;;2.37;1.67;;;21.30;99.90;;;;;;7366723;19;20438;-40
2022/06/27 04:28:42;;;;;;;2.43;1.03;;;21.40;99.90;;;;;;7359891;19;20837;-39
2022/06/27 04:31:12;;;;;;;2.53;1.60;;;21.30;99.90;;;;;;7366766;19;20372;-40
2022/06/27 04:33:44;;;;;;;2.50;1.33;;;21.50;99.90;;;;;;7370028;19;20408;-40
2022/06/27 04:36:13;;;;;;;1.10;0.90;;;21.40;99.90;;;;;;7372397;19;20431;-40
2022/06/27 04:38:43;;;;;;;1.63;1.33;;;21.30;99.90;;;;;;7376369;19;21041;-41
2022/06/27 04:41:31;;;;;;;3.00;1.40;;;21.10;99.90;;;;;;7376502;19;20423;-38
2022/06/27 04:44:03;;;;;;;1.90;1.27;;;21.10;99.90;;;;;;7375842;19;20375;-40
2022/06/27 04:46:33;;;;;;;1.27;1.10;;;21.10;99.90;;;;;;7374909;19;20955;-40
2022/06/27 04:49:05;;;;;;;4.57;1.30;;;21.10;99.90;;;;;;7376059;19;20373;-39
2022/06/27 04:51:35;;;;;;;3.30;1.30;;;21.10;99.90;;;;;;7375136;19;20377;-39
2022/06/27 04:54:05;;;;;;;1.60;0.90;;;21.10;99.90;;;;;;7372795;19;20759;-40
2022/06/27 04:56:35;;;;;;;1.67;0.97;;;21.00;99.90;;;;;;7372368;19;21034;-40
2022/06/27 04:59:09;;;;;;;25.73;17.17;;;20.90;99.90;;;;;;7375778;19;20836;-40
2022/06/27 05:01:40;;;;;;;22.47;15.83;;;21.00;99.90;;;;;;7372145;19;20406;-40
2022/06/27 05:04:13;;;;;;;4.47;2.43;;;21.10;99.90;;;;;;7377128;19;20966;-39
2022/06/27 05:06:45;;;;;;;6.10;4.27;;;21.30;99.90;;;;;;7373091;19;20954;-40
2022/06/27 05:09:15;;;;;;;18.33;14.80;;;21.40;99.90;;;;;;7375578;19;20404;-40
2022/06/27 05:11:45;;;;;;;16.90;8.97;;;21.70;99.90;;;;;;7370823;19;21142;-40
2022/06/27 05:14:20;;;;;;;4.53;1.93;;;21.80;99.90;;;;;;7356138;19;20376;-40
2022/06/27 05:16:58;;;;;;;2.50;2.00;;;22.10;99.90;;;;;;7363603;19;20408;-40
2022/06/27 05:19:31;;;;;;;2.53;1.53;;;22.00;99.90;;;;;;7360813;19;20404;-40
2022/06/27 05:22:05;;;;;;;11.90;7.93;;;22.10;99.90;;;;;;7375247;19;20371;-40
2022/06/27 05:24:37;;;;;;;14.67;9.00;;;22.20;99.90;;;;;;7366127;19;20392;-40
2022/06/27 05:27:08;;;;;;;3.80;2.70;;;22.30;99.90;;;;;;7373953;19;20364;-40
2022/06/27 05:29:43;;;;;;;19.70;4.73;;;22.30;99.90;;;;;;7371257;19;20504;-40
2022/06/27 05:32:13;;;;;;;13.67;2.70;;;22.30;99.90;;;;;;7362713;19;20412;-41
2022/06/27 05:34:42;;;;;;;6.03;1.60;;;22.30;99.90;;;;;;7373554;19;20397;-41
2022/06/27 05:37:12;;;;;;;2.93;1.10;;;22.10;99.90;;;;;;7371750;19;20396;-41
2022/06/27 05:39:45;;;;;;;3.83;1.60;;;22.10;99.90;;;;;;7364103;19;20376;-40
2022/06/27 05:42:17;;;;;;;5.00;1.40;;;22.10;99.90;;;;;;7357856;19;20412;-42
2022/06/27 05:44:51;;;;;;;2.23;1.20;;;22.30;99.90;;;;;;7374382;19;20761;-40
2022/06/27 05:47:21;;;;;;;2.80;1.27;;;22.30;99.90;;;;;;7366086;19;20432;-41
2022/06/27 05:50:08;;;;;;;4.10;2.90;;;22.30;99.90;;;;;;7360899;19;20371;-41
2022/06/27 05:52:41;;;;;;;2.20;1.30;;;22.20;99.90;;;;;;7371844;19;20376;-41
2022/06/27 05:55:11;;;;;;;1.83;1.40;;;22.20;99.90;;;;;;7372910;19;20403;-41
2022/06/27 05:57:41;;;;;;;3.20;1.20;;;22.30;99.90;;;;;;7370958;19;20380;-41
2022/06/27 06:00:15;;;;;;;3.30;1.50;;;22.30;99.90;;;;;;7380159;19;20406;-41
2022/06/27 06:02:46;;;;;;;3.10;1.27;;;22.30;99.90;;;;;;7376637;19;20390;-41
2022/06/27 06:05:19;;;;;;;1.70;1.60;;;22.40;99.90;;;;;;7377825;19;20913;-41
2022/06/27 06:07:48;;;;;;;2.27;1.20;;;22.60;99.90;;;;;;7365130;19;21379;-42
2022/06/27 06:10:19;;;;;;;1.40;1.10;;;22.60;99.90;;;;;;7371038;19;20387;-41
2022/06/27 06:12:49;;;;;;;1.13;1.03;;;22.60;99.90;;;;;;7369696;19;21596;-42
2022/06/27 06:15:21;;;;;;;2.10;1.40;;;22.60;99.90;;;;;;7367354;19;20792;-42
2022/06/27 06:17:54;;;;;;;2.43;1.20;;;22.40;99.90;;;;;;7371973;19;20376;-42
2022/06/27 06:20:23;;;;;;;2.13;1.10;;;22.40;99.90;;;;;;7369665;19;20364;-40
2022/06/27 06:22:53;;;;;;;1.23;1.00;;;22.50;99.90;;;;;;7374579;19;20380;-41
2022/06/27 06:25:23;;;;;;;4.23;1.10;;;22.60;99.90;;;;;;7370876;19;20388;-43
2022/06/27 06:27:56;;;;;;;2.90;1.50;;;22.60;99.90;;;;;;7365572;19;20874;-41
2022/06/27 06:30:29;;;;;;;1.20;0.97;;;22.80;99.90;;;;;;7357246;19;20427;-41
2022/06/27 06:33:02;;;;;;;1.33;0.90;;;22.90;99.90;;;;;;7375763;19;20427;-41
2022/06/27 06:35:34;;;;;;;3.20;0.83;;;23.10;99.90;;;;;;7374172;19;21044;-43
2022/06/27 06:38:06;;;;;;;1.00;0.83;;;23.40;99.90;;;;;;7376352;19;20387;-41
2022/06/27 06:40:39;;;;;;;1.13;1.00;;;23.40;99.90;;;;;;7357261;19;20408;-43
2022/06/27 06:43:08;;;;;;;3.63;1.07;;;23.60;99.90;;;;;;7375012;19;20368;-41
2022/06/27 06:46:01;;;;;;;2.30;0.83;;;23.70;99.90;;;;;;7373818;19;20380;-41
2022/06/27 06:48:49;;;;;;;0.90;0.70;;;23.70;99.90;;;;;;7371600;19;20412;-41
2022/06/27 06:51:20;;;;;;;2.20;1.07;;;23.60;99.90;;;;;;7376793;19;21311;-42
2022/06/27 06:53:50;;;;;;;0.80;0.70;;;23.70;99.90;;;;;;7374314;19;20423;-41
2022/06/27 06:56:20;;;;;;;1.63;0.93;;;24.00;99.90;;;;;;7380081;19;20384;-41
2022/06/27 06:58:50;;;;;;;1.60;0.83;;;24.20;99.90;;;;;;7374046;19;20409;-41
2022/06/27 07:01:27;;;;;;;2.17;0.90;;;24.30;99.90;;;;;;7380242;19;20394;-41
2022/06/27 07:03:57;;;;;;;1.10;0.80;;;24.60;99.90;;;;;;7378120;19;20372;-41
2022/06/27 07:06:28;;;;;;;3.00;0.70;;;24.90;99.90;;;;;;7376434;19;20432;-42
2022/06/27 07:09:00;;;;;;;3.20;0.97;;;25.20;97.40;;;;;;7376902;19;20368;-42
2022/06/27 07:11:31;;;;;;;1.33;0.70;;;25.20;96.00;;;;;;7377826;19;20957;-42
2022/06/27 07:14:01;;;;;;;1.53;0.70;;;25.30;96.00;;;;;;7375607;19;20417;-41
2022/06/27 07:16:35;;;;;;;2.70;0.90;;;25.30;94.90;;;;;;7378038;19;20825;-42
2022/06/27 07:19:08;;;;;;;3.13;0.80;;;25.30;95.00;;;;;;7377614;19;20408;-41
2022/06/27 07:21:38;;;;;;;1.60;0.77;;;25.20;94.50;;;;;;7376343;19;20401;-41
2022/06/27 07:24:09;;;;;;;2.53;1.00;;;24.80;95.10;;;;;;7374282;19;20428;-41
2022/06/27 07:26:39;;;;;;;1.67;0.90;;;24.70;95.30;;;;;;7374396;19;20447;-42
2022/06/27 07:29:11;;;;;;;0.80;0.60;;;25.00;95.90;;;;;;7377686;19;20509;-42
2022/06/27 07:31:46;;;;;;;1.33;0.60;;;25.00;94.60;;;;;;7374806;19;20395;-42
2022/06/27 07:34:20;;;;;;;0.70;0.60;;;25.10;93.70;;;;;;7376334;19;20411;-41
2022/06/27 07:36:51;;;;;;;1.23;0.90;;;24.80;94.40;;;;;;7376505;19;20408;-41
2022/06/27 07:39:21;;;;;;;1.13;0.87;;;24.50;95.70;;;;;;7376085;19;20411;-41
2022/06/27 07:41:51;;;;;;;5.60;1.53;;;24.60;96.80;;;;;;7376343;19;20957;-41
2022/06/27 07:44:21;;;;;;;1.17;0.80;;;24.80;97.30;;;;;;7375209;19;20400;-42
2022/06/27 07:46:56;;;;;;;1.23;1.00;;;24.90;94.60;;;;;;7372303;19;20443;-41
2022/06/27 07:49:25;;;;;;;1.50;1.17;;;25.00;94.20;;;;;;7377361;19;21435;-41
2022/06/27 07:51:55;;;;;;;3.53;1.83;;;25.00;95.00;;;;;;7374253;19;20387;-41
2022/06/27 07:54:25;;;;;;;1.27;1.10;;;24.90;95.00;;;;;;7375895;19;20427;-41
2022/06/27 07:56:55;;;;;;;3.70;2.33;;;25.00;95.10;;;;;;7374299;19;20843;-41
2022/06/27 07:59:25;;;;;;;2.30;0.70;;;25.10;94.30;;;;;;7375803;19;20954;-41
2022/06/27 08:01:58;;;;;;;0.90;0.80;;;25.20;94.20;;;;;;7375427;19;21145;-41
2022/06/27 08:04:28;;;;;;;1.60;1.50;;;25.40;93.30;;;;;;7373180;19;20372;-41
2022/06/27 08:07:01;;;;;;;3.13;1.03;;;25.50;92.10;;;;;;7374840;19;20376;-41
2022/06/27 08:09:31;;;;;;;1.90;1.17;;;25.60;92.50;;;;;;7377317;19;20493;-41
2022/06/27 08:12:01;;;;;;;1.00;0.60;;;25.90;92.00;;;;;;7373857;19;20387;-41
2022/06/27 08:14:31;;;;;;;2.17;0.80;;;26.10;90.30;;;;;;7375150;19;20379;-41
2022/06/27 08:17:03;;;;;;;1.40;0.60;;;26.20;88.30;;;;;;7375518;19;20376;-41
2022/06/27 08:19:33;;;;;;;2.30;0.63;;;26.40;86.90;;;;;;7376696;19;20388;-41
2022/06/27 08:22:03;;;;;;;1.43;0.60;;;26.50;86.50;;;;;;7377028;19;20399;-43
2022/06/27 08:24:33;;;;;;;0.80;0.60;;;26.50;85.60;;;;;;7373933;19;20388;-41
2022/06/27 08:27:04;;;;;;;0.90;0.60;;;26.60;88.20;;;;;;7375351;19;21318;-41
2022/06/27 08:29:34;;;;;;;1.40;0.70;;;26.80;80.30;;;;;;7374249;19;20926;-41
2022/06/27 08:32:07;;;;;;;1.70;0.50;;;26.90;81.50;;;;;;7374693;19;21076;-41
2022/06/27 08:34:37;;;;;;;0.83;0.60;;;26.80;79.50;;;;;;7375642;19;20376;-41
2022/06/27 08:37:06;;;;;;;1.07;0.57;;;26.80;82.00;;;;;;7375681;19;20384;-41
2022/06/27 08:39:37;;;;;;;1.17;0.77;;;27.10;81.40;;;;;;7373863;19;20420;-41
2022/06/27 08:42:08;;;;;;;3.90;0.77;;;27.30;80.20;;;;;;7375107;19;20429;-41
2022/06/27 08:44:39;;;;;;;1.17;0.93;;;27.30;79.70;;;;;;7373440;19;20380;-41
2022/06/27 08:47:11;;;;;;;3.13;0.97;;;27.60;80.10;;;;;;7371743;19;20427;-42
2022/06/27 08:49:41;;;;;;;2.93;0.70;;;27.70;77.20;;;;;;7376657;19;20852;-42
2022/06/27 08:52:10;;;;;;;2.80;1.63;;;27.50;76.30;;;;;;7374792;19;20380;-41
2022/06/27 08:54:40;;;;;;;2.13;0.73;;;27.20;74.20;;;;;;7374015;19;20824;-41
2022/06/27 08:57:10;;;;;;;1.40;0.80;;;27.00;75.70;;;;;;7375077;19;20405;-41
2022/06/27 08:59:40;;;;;;;1.47;0.87;;;26.50;76.70;;;;;;7374478;19;20796;-41
2022/06/27 09:02:19;;;;;;;0.97;0.63;;;26.20;80.80;;;;;;7374436;19;20448;-42
2022/06/27 09:04:59;;;;;;;1.00;0.70;;;25.90;79.50;;;;;;7379774;19;20846;-41
2022/06/27 09:07:49;;;;;;;1.70;0.70;;;26.00;79.10;;;;;;7381127;19;20388;-41
2022/06/27 09:10:30;;;;;;;3.17;1.03;;;26.10;79.50;;;;;;7374002;19;20424;-44
2022/06/27 09:13:03;;;;;;;0.70;0.70;;;25.80;81.80;;;;;;7380994;19;21009;-45
2022/06/27 09:15:48;;;;;;;1.10;1.00;;;25.70;81.50;;;;;;7372119;19;20913;-45
2022/06/27 09:18:22;;;;;;;1.40;1.00;;;25.60;86.20;;;;;;7380061;19;20725;-44
2022/06/27 09:20:55;;;;;;;2.97;1.20;;;25.60;88.90;;;;;;7366907;19;20372;-45
2022/06/27 09:23:35;;;;;;;1.40;0.80;;;25.70;90.00;;;;;;7379613;19;20891;-45
2022/06/27 09:26:09;;;;;;;1.00;0.83;;;25.60;90.30;;;;;;7374929;19;20404;-44
2022/06/27 09:28:44;;;;;;;1.60;0.83;;;25.50;90.70;;;;;;7382989;19;20471;-46
2022/06/27 09:31:17;;;;;;;1.17;1.07;;;25.60;90.30;;;;;;7378448;19;21060;-44
2022/06/27 09:34:03;;;;;;;0.70;0.70;;;26.00;90.00;;;;;;7380418;19;20368;-44
2022/06/27 09:36:34;;;;;;;2.97;0.87;;;26.10;86.50;;;;;;7381300;19;20416;-44
2022/06/27 09:39:07;;;;;;;0.70;0.60;;;26.10;87.30;;;;;;7379608;19;20380;-44
2022/06/27 09:41:38;;;;;;;2.10;0.77;;;26.30;85.80;;;;;;7381641;19;20739;-41
2022/06/27 09:44:14;;;;;;;1.13;0.77;;;26.40;84.80;;;;;;7382011;19;20376;-41
2022/06/27 09:46:47;;;;;;;3.20;1.73;;;26.50;84.70;;;;;;7378850;19;20443;-42
2022/06/27 09:49:19;;;;;;;1.07;1.00;;;26.50;86.10;;;;;;7380110;19;20380;-42
2022/06/27 09:51:51;;;;;;;0.97;0.87;;;27.00;85.50;;;;;;7381468;19;20383;-42
2022/06/27 09:54:22;;;;;;;2.27;1.23;;;27.60;78.80;;;;;;7379434;19;20372;-42
2022/06/27 09:56:52;;;;;;;3.40;1.00;;;27.80;76.40;;;;;;7378542;19;20384;-42
2022/06/27 09:59:24;;;;;;;3.20;1.00;;;27.80;76.50;;;;;;7379721;19;20807;-42
2022/06/27 10:01:56;;;;;;;1.43;1.10;;;27.90;74.80;;;;;;7380619;19;20501;-42
2022/06/27 10:04:29;;;;;;;2.17;1.10;;;28.30;75.90;;;;;;7380206;19;20376;-42
2022/06/27 10:07:03;;;;;;;1.50;1.00;;;28.80;74.30;;;;;;7377043;19;22324;-42
2022/06/27 10:09:35;;;;;;;1.50;0.80;;;28.90;72.40;;;;;;7379712;19;20470;-42
2022/06/27 10:12:25;;;;;;;1.33;0.80;;;28.70;71.40;;;;;;7377697;19;20416;-45
2022/06/27 10:15:27;;;;;;;2.10;1.00;;;28.70;70.10;;;;;;7375932;19;20875;-44
2022/06/27 10:17:58;;;;;;;1.87;1.73;;;28.30;71.60;;;;;;7378549;19;21463;-44
2022/06/27 10:20:36;;;;;;;1.20;1.00;;;27.70;73.70;;;;;;7377122;19;20372;-44
2022/06/27 10:23:25;;;;;;;1.50;1.03;;;27.50;75.00;;;;;;7378707;19;22629;-44
2022/06/27 10:25:56;;;;;;;1.20;1.10;;;27.20;76.20;;;;;;7374065;19;21473;-44
2022/06/27 10:28:26;;;;;;;1.57;1.40;;;27.00;77.30;;;;;;7370625;19;20719;-43
2022/06/27 10:30:57;;;;;;;4.03;1.30;;;26.60;78.30;;;;;;7373207;19;20376;-43
2022/06/27 10:33:40;;;;;;;1.30;1.20;;;26.40;79.40;;;;;;7370384;19;20383;-44
2022/06/27 10:36:16;;;;;;;3.30;1.60;;;25.80;82.70;;;;;;7372217;19;20380;-43
2022/06/27 10:38:53;;;;;;;1.67;1.57;;;25.50;85.10;;;;;;7366897;19;20772;-45
2022/06/27 10:41:43;;;;;;;2.07;1.40;;;25.20;87.60;;;;;;7375985;19;20910;-43
2022/06/27 10:44:34;;;;;;;2.23;1.73;;;25.30;88.50;;;;;;7370706;19;20416;-44
2022/06/27 10:47:04;;;;;;;3.90;1.80;;;25.20;88.40;;;;;;7366910;19;20436;-44
2022/06/27 10:49:36;;;;;;;2.27;1.87;;;25.20;88.70;;;;;;7373529;19;20768;-44
2022/06/27 10:52:38;;;;;;;2.73;1.67;;;25.10;88.70;;;;;;7372671;19;20918;-44
2022/06/27 10:55:23;;;;;;;5.53;1.90;;;25.10;89.20;;;;;;7365622;19;21065;-44
2022/06/27 10:57:54;;;;;;;2.13;1.80;;;25.20;89.70;;;;;;7370041;19;20401;-44
2022/06/27 11:00:43;;;;;;;2.50;1.87;;;25.10;88.20;;;;;;7368023;19;20765;-44
2022/06/27 11:03:22;;;;;;;2.93;1.77;;;25.20;87.30;;;;;;7360686;19;20864;-45
2022/06/27 11:06:03;;;;;;;3.40;2.30;;;25.20;87.20;;;;;;7362360;19;21420;-45
2022/06/27 11:08:37;;;;;;;3.27;1.90;;;25.20;88.20;;;;;;7373622;19;20415;-45
2022/06/27 11:11:07;;;;;;;3.10;1.70;;;25.10;86.50;;;;;;7369123;19;20384;-45
2022/06/27 11:13:39;;;;;;;2.70;2.40;;;25.10;86.10;;;;;;7369267;19;20372;-44
2022/06/27 11:16:11;;;;;;;3.90;2.17;;;24.90;86.10;;;;;;7357026;19;20950;-45
2022/06/27 11:18:45;;;;;;;1.73;1.63;;;24.90;86.80;;;;;;7368985;19;20958;-44
2022/06/27 11:21:16;;;;;;;1.97;1.87;;;24.90;86.30;;;;;;7372682;19;20372;-45
2022/06/27 11:24:03;;;;;;;3.73;2.50;;;24.70;86.90;;;;;;7368893;19;20394;-44
2022/06/27 11:26:35;;;;;;;2.80;2.30;;;24.80;87.50;;;;;;7369677;19;20380;-44
2022/06/27 11:32:02;;;;;;;3.60;1.93;;;24.60;88.40;;;;;;7355746;19;20383;-44
2022/06/27 11:34:33;;;;;;;2.33;2.10;;;24.60;88.80;;;;;;7368538;19;20364;-44
2022/06/27 11:37:05;;;;;;;2.10;1.90;;;24.60;88.00;;;;;;7356479;19;20404;-45
2022/06/27 11:39:39;;;;;;;1.90;1.80;;;24.70;87.60;;;;;;7356893;19;20379;-44
2022/06/27 11:42:13;;;;;;;2.53;1.80;;;24.80;86.10;;;;;;7362307;19;20372;-41
2022/06/27 11:45:07;;;;;;;2.73;2.10;;;24.60;88.00;;;;;;7372208;19;20372;-41
2022/06/27 11:47:40;;;;;;;2.57;2.00;;;24.80;87.20;;;;;;7366471;19;22018;-46
2022/06/27 11:50:12;;;;;;;2.80;1.60;;;24.70;87.30;;;;;;7369964;19;20476;-40
2022/06/27 11:52:44;;;;;;;2.73;2.30;;;24.70;87.60;;;;;;7366007;19;20920;-40
2022/06/27 11:55:18;;;;;;;1.50;1.40;;;24.70;89.60;;;;;;7368985;19;20420;-40
2022/06/27 11:57:50;;;;;;;2.03;1.70;;;24.60;90.20;;;;;;7371335;19;20481;-41
2022/06/27 12:00:21;;;;;;;2.30;1.90;;;24.60;90.40;;;;;;7367161;19;20380;-41
2022/06/27 12:02:54;;;;;;;2.73;2.33;;;24.50;90.40;;;;;;7363926;19;20384;-41
2022/06/27 12:05:25;;;;;;;1.87;1.67;;;24.40;90.00;;;;;;7363329;19;21276;-41
2022/06/27 12:08:00;;;;;;;2.10;1.93;;;24.30;90.60;;;;;;7364601;19;20388;-41
2022/06/27 12:11:17;;;;;;;4.00;1.97;;;24.40;90.30;;;;;;7373572;19;20471;-41
2022/06/27 12:13:43;;;;;;;6.33;1.80;;;24.60;89.20;;;;;;7371765;19;20934;-41
2022/06/27 12:16:15;;;;;;;2.10;1.87;;;24.60;88.00;;;;;;7366530;19;21045;-41
2022/06/27 12:18:51;;;;;;;2.00;1.80;;;24.60;86.00;;;;;;7373912;19;20976;-42
2022/06/27 12:21:21;;;;;;;2.30;1.50;;;24.50;86.80;;;;;;7367300;19;20399;-42
2022/06/27 12:23:53;;;;;;;2.70;1.70;;;24.40;86.00;;;;;;7366898;19;21174;-41
2022/06/27 12:26:25;;;;;;;2.20;1.77;;;24.40;85.50;;;;;;7364321;19;20415;-41
2022/06/27 12:28:55;;;;;;;1.70;1.60;;;24.30;85.60;;;;;;7363664;19;20391;-42
2022/06/27 12:31:27;;;;;;;2.80;2.20;;;24.20;86.40;;;;;;7368639;19;20399;-41
2022/06/27 12:33:56;;;;;;;2.07;1.50;;;24.20;86.80;;;;;;7365431;19;20411;-41
2022/06/27 12:36:26;;;;;;;2.23;2.03;;;24.20;87.70;;;;;;7362099;19;21107;-41
2022/06/27 12:38:55;;;;;;;2.40;1.70;;;24.00;87.80;;;;;;7365673;19;21196;-41
2022/06/27 12:41:27;;;;;;;2.47;1.63;;;23.80;87.70;;;;;;7381551;19;20503;-41
2022/06/27 12:44:00;;;;;;;2.13;1.70;;;23.80;87.80;;;;;;7373747;19;20415;-41
2022/06/27 12:46:32;;;;;;;4.40;2.03;;;23.90;87.20;;;;;;7376243;19;20495;-41
2022/06/27 12:49:02;;;;;;;1.60;1.50;;;24.00;86.50;;;;;;7359145;19;20486;-41
2022/06/27 12:51:31;;;;;;;2.03;1.77;;;24.10;86.20;;;;;;7378474;19;21172;-44
2022/06/27 12:54:01;;;;;;;2.00;1.80;;;24.10;86.20;;;;;;7371084;19;20997;-44
2022/06/27 12:56:33;;;;;;;2.03;1.83;;;24.10;86.20;;;;;;7369810;19;20961;-45
2022/06/27 12:59:03;;;;;;;2.00;1.73;;;24.10;87.70;;;;;;7368234;19;20478;-45
2022/06/27 13:01:32;;;;;;;2.17;1.97;;;24.20;88.20;;;;;;7372053;19;20401;-45
2022/06/27 13:04:02;;;;;;;2.63;2.27;;;24.30;86.80;;;;;;7377991;19;20372;-45
2022/06/27 13:06:32;;;;;;;1.90;1.80;;;24.20;87.10;;;;;;7377314;19;21012;-44
2022/06/27 13:09:01;;;;;;;2.10;1.90;;;24.10;87.30;;;;;;7376634;19;20369;-45
2022/06/27 13:11:33;;;;;;;2.20;1.77;;;24.10;87.50;;;;;;7377684;19;20408;-45
2022/06/27 13:14:03;;;;;;;4.00;2.50;;;24.00;88.70;;;;;;7375994;19;20399;-44
2022/06/27 13:16:33;;;;;;;2.83;2.40;;;24.00;88.40;;;;;;7378623;19;20504;-46
2022/06/27 13:19:02;;;;;;;2.60;2.20;;;24.10;88.90;;;;;;7349426;19;20443;-45
2022/06/27 13:21:32;;;;;;;5.97;2.20;;;24.10;87.60;;;;;;7377342;19;20401;-41
2022/06/27 13:24:01;;;;;;;1.67;1.57;;;24.10;87.50;;;;;;7374976;19;20396;-41